sensor_id;sensor_type;location;lat;lon;timestamp;P1;durP1;ratioP1;P2;durP2;ratioP2
64959;SDS011;51487;52.266;10.542;2023-03-21T00:00:14;13.35;;;10.35;;
64959;SDS011;51487;52.266;10.542;2023-03-21T00:02:41;14.13;;;11.05;;
64959;SDS011;51487;52.266;10.542;2023-03-21T00:05:06;14.55;;;10.00;;
64959;SDS011;51487;52.266;10.542;2023-03-21T00:07:32;12.20;;;10.50;;
64959;SDS011;51487;52.266;10.542;2023-03-21T00:09:57;14.23;;;10.65;;
64959;SDS011;51487;52.266;10.542;2023-03-21T00:12:22;13.98;;;9.90;;
64959;SDS011;51487;52.266;10.542;2023-03-21T00:14:48;12.45;;;10.00;;
64959;SDS011;51487;52.266;10.542;2023-03-21T00:17:13;14.55;;;11.35;;
64959;SDS011;51487;52.266;10.542;2023-03-21T00:19:39;16.30;;;9.93;;
64959;SDS011;51487;52.266;10.542;2023-03-21T00:22:05;14.55;;;9.93;;
64959;SDS011;51487;52.266;10.542;2023-03-21T00:24:32;13.30;;;10.38;;
64959;SDS011;51487;52.266;10.542;2023-03-21T00:26:57;18.80;;;10.85;;
64959;SDS011;51487;52.266;10.542;2023-03-21T00:29:22;14.93;;;10.15;;
64959;SDS011;51487;52.266;10.542;2023-03-21T00:31:48;14.73;;;10.80;;
64959;SDS011;51487;52.266;10.542;2023-03-21T00:34:13;14.50;;;10.88;;
64959;SDS011;51487;52.266;10.542;2023-03-21T00:36:38;14.40;;;11.02;;
64959;SDS011;51487;52.266;10.542;2023-03-21T00:39:04;11.80;;;9.95;;
64959;SDS011;51487;52.266;10.542;2023-03-21T00:41:30;15.73;;;12.20;;
64959;SDS011;51487;52.266;10.542;2023-03-21T00:43:56;15.68;;;11.40;;
64959;SDS011;51487;52.266;10.542;2023-03-21T00:46:21;17.40;;;12.23;;
64959;SDS011;51487;52.266;10.542;2023-03-21T00:48:47;16.58;;;11.63;;
64959;SDS011;51487;52.266;10.542;2023-03-21T00:51:13;15.50;;;11.38;;
64959;SDS011;51487;52.266;10.542;2023-03-21T00:56:11;14.73;;;12.05;;
64959;SDS011;51487;52.266;10.542;2023-03-21T00:58:36;16.33;;;11.55;;
64959;SDS011;51487;52.266;10.542;2023-03-21T01:01:01;14.85;;;12.02;;
64959;SDS011;51487;52.266;10.542;2023-03-21T01:03:28;16.00;;;12.40;;
64959;SDS011;51487;52.266;10.542;2023-03-21T01:05:54;16.30;;;12.63;;
64959;SDS011;51487;52.266;10.542;2023-03-21T01:08:32;15.93;;;12.60;;
64959;SDS011;51487;52.266;10.542;2023-03-21T01:11:01;15.23;;;12.52;;
64959;SDS011;51487;52.266;10.542;2023-03-21T01:13:28;20.63;;;13.18;;
64959;SDS011;51487;52.266;10.542;2023-03-21T01:15:54;16.83;;;14.00;;
64959;SDS011;51487;52.266;10.542;2023-03-21T01:18:22;14.07;;;11.95;;
64959;SDS011;51487;52.266;10.542;2023-03-21T01:20:51;16.95;;;13.10;;
64959;SDS011;51487;52.266;10.542;2023-03-21T01:23:17;13.48;;;12.07;;
64959;SDS011;51487;52.266;10.542;2023-03-21T01:25:42;17.67;;;13.38;;
64959;SDS011;51487;52.266;10.542;2023-03-21T01:28:08;15.15;;;12.25;;
64959;SDS011;51487;52.266;10.542;2023-03-21T01:30:34;14.32;;;12.82;;
64959;SDS011;51487;52.266;10.542;2023-03-21T01:33:00;15.75;;;12.18;;
64959;SDS011;51487;52.266;10.542;2023-03-21T01:35:25;16.35;;;12.77;;
64959;SDS011;51487;52.266;10.542;2023-03-21T01:37:51;14.57;;;12.30;;
64959;SDS011;51487;52.266;10.542;2023-03-21T01:40:17;18.08;;;12.23;;
64959;SDS011;51487;52.266;10.542;2023-03-21T01:42:48;16.80;;;12.53;;
64959;SDS011;51487;52.266;10.542;2023-03-21T01:48:23;16.42;;;12.45;;
64959;SDS011;51487;52.266;10.542;2023-03-21T01:50:50;15.63;;;13.35;;
64959;SDS011;51487;52.266;10.542;2023-03-21T01:53:18;16.58;;;13.55;;
64959;SDS011;51487;52.266;10.542;2023-03-21T01:55:46;15.65;;;12.77;;
64959;SDS011;51487;52.266;10.542;2023-03-21T01:58:14;15.00;;;12.95;;
64959;SDS011;51487;52.266;10.542;2023-03-21T02:00:45;17.95;;;13.43;;
64959;SDS011;51487;52.266;10.542;2023-03-21T02:03:12;15.35;;;12.48;;
64959;SDS011;51487;52.266;10.542;2023-03-21T02:05:54;17.70;;;12.73;;
64959;SDS011;51487;52.266;10.542;2023-03-21T02:08:27;15.13;;;12.10;;
64959;SDS011;51487;52.266;10.542;2023-03-21T02:10:54;14.93;;;12.88;;
64959;SDS011;51487;52.266;10.542;2023-03-21T02:13:20;15.57;;;12.05;;
64959;SDS011;51487;52.266;10.542;2023-03-21T02:18:41;15.70;;;11.15;;
64959;SDS011;51487;52.266;10.542;2023-03-21T02:24:10;14.52;;;10.55;;
64959;SDS011;51487;52.266;10.542;2023-03-21T02:26:50;14.05;;;10.20;;
64959;SDS011;51487;52.266;10.542;2023-03-21T02:37:45;13.57;;;10.13;;
64959;SDS011;51487;52.266;10.542;2023-03-21T02:40:17;12.70;;;9.50;;
64959;SDS011;51487;52.266;10.542;2023-03-21T02:45:35;13.40;;;9.13;;
64959;SDS011;51487;52.266;10.542;2023-03-21T02:48:10;12.57;;;9.65;;
64959;SDS011;51487;52.266;10.542;2023-03-21T02:50:44;15.95;;;10.07;;
64959;SDS011;51487;52.266;10.542;2023-03-21T02:53:13;14.38;;;9.98;;
64959;SDS011;51487;52.266;10.542;2023-03-21T02:55:41;13.10;;;9.85;;
64959;SDS011;51487;52.266;10.542;2023-03-21T02:58:08;12.02;;;10.05;;
64959;SDS011;51487;52.266;10.542;2023-03-21T03:00:36;13.70;;;10.60;;
64959;SDS011;51487;52.266;10.542;2023-03-21T03:03:03;11.63;;;9.45;;
64959;SDS011;51487;52.266;10.542;2023-03-21T03:05:29;14.23;;;9.38;;
64959;SDS011;51487;52.266;10.542;2023-03-21T03:10:50;14.90;;;10.43;;
64959;SDS011;51487;52.266;10.542;2023-03-21T03:13:32;17.45;;;10.70;;
64959;SDS011;51487;52.266;10.542;2023-03-21T03:16:36;15.18;;;9.70;;
64959;SDS011;51487;52.266;10.542;2023-03-21T03:19:10;14.63;;;10.50;;
64959;SDS011;51487;52.266;10.542;2023-03-21T03:21:44;15.68;;;10.85;;
64959;SDS011;51487;52.266;10.542;2023-03-21T03:24:15;15.13;;;10.65;;
64959;SDS011;51487;52.266;10.542;2023-03-21T03:29:18;14.70;;;10.45;;
64959;SDS011;51487;52.266;10.542;2023-03-21T03:31:47;12.60;;;9.38;;
64959;SDS011;51487;52.266;10.542;2023-03-21T03:34:18;15.38;;;10.55;;
64959;SDS011;51487;52.266;10.542;2023-03-21T03:36:49;17.48;;;10.95;;
64959;SDS011;51487;52.266;10.542;2023-03-21T03:39:20;13.00;;;10.47;;
64959;SDS011;51487;52.266;10.542;2023-03-21T03:41:53;17.23;;;10.70;;
64959;SDS011;51487;52.266;10.542;2023-03-21T03:44:24;16.23;;;10.50;;
64959;SDS011;51487;52.266;10.542;2023-03-21T03:46:55;16.73;;;10.90;;
64959;SDS011;51487;52.266;10.542;2023-03-21T03:49:25;15.43;;;9.80;;
64959;SDS011;51487;52.266;10.542;2023-03-21T03:51:56;14.98;;;9.38;;
64959;SDS011;51487;52.266;10.542;2023-03-21T03:54:30;16.10;;;9.38;;
64959;SDS011;51487;52.266;10.542;2023-03-21T03:57:00;13.02;;;9.80;;
64959;SDS011;51487;52.266;10.542;2023-03-21T03:59:27;13.25;;;10.05;;
64959;SDS011;51487;52.266;10.542;2023-03-21T04:01:52;15.68;;;9.65;;
64959;SDS011;51487;52.266;10.542;2023-03-21T04:04:18;11.73;;;9.23;;
64959;SDS011;51487;52.266;10.542;2023-03-21T04:06:46;14.18;;;9.40;;
64959;SDS011;51487;52.266;10.542;2023-03-21T04:09:15;17.70;;;10.02;;
64959;SDS011;51487;52.266;10.542;2023-03-21T04:11:42;16.13;;;9.88;;
64959;SDS011;51487;52.266;10.542;2023-03-21T04:14:07;14.48;;;9.30;;
64959;SDS011;51487;52.266;10.542;2023-03-21T04:16:33;16.30;;;9.88;;
64959;SDS011;51487;52.266;10.542;2023-03-21T04:18:58;19.25;;;10.00;;
64959;SDS011;51487;52.266;10.542;2023-03-21T04:21:23;12.25;;;8.80;;
64959;SDS011;51487;52.266;10.542;2023-03-21T04:23:49;11.23;;;8.80;;
64959;SDS011;51487;52.266;10.542;2023-03-21T04:26:15;12.50;;;8.80;;
64959;SDS011;51487;52.266;10.542;2023-03-21T04:28:41;15.52;;;9.38;;
64959;SDS011;51487;52.266;10.542;2023-03-21T04:31:06;13.93;;;9.32;;
64959;SDS011;51487;52.266;10.542;2023-03-21T04:33:33;13.55;;;9.27;;
64959;SDS011;51487;52.266;10.542;2023-03-21T04:36:02;14.30;;;9.00;;
64959;SDS011;51487;52.266;10.542;2023-03-21T04:38:30;14.18;;;9.02;;
64959;SDS011;51487;52.266;10.542;2023-03-21T04:40:57;17.38;;;9.50;;
64959;SDS011;51487;52.266;10.542;2023-03-21T04:43:23;15.25;;;9.48;;
64959;SDS011;51487;52.266;10.542;2023-03-21T04:45:49;14.05;;;8.57;;
64959;SDS011;51487;52.266;10.542;2023-03-21T04:48:14;14.07;;;9.23;;
64959;SDS011;51487;52.266;10.542;2023-03-21T04:50:42;14.57;;;8.43;;
64959;SDS011;51487;52.266;10.542;2023-03-21T04:53:08;12.68;;;8.43;;
64959;SDS011;51487;52.266;10.542;2023-03-21T04:55:33;15.93;;;8.88;;
64959;SDS011;51487;52.266;10.542;2023-03-21T04:58:00;12.60;;;9.00;;
64959;SDS011;51487;52.266;10.542;2023-03-21T05:00:27;14.07;;;8.77;;
64959;SDS011;51487;52.266;10.542;2023-03-21T05:02:52;13.85;;;8.38;;
64959;SDS011;51487;52.266;10.542;2023-03-21T05:05:17;14.85;;;9.15;;
64959;SDS011;51487;52.266;10.542;2023-03-21T05:07:43;12.52;;;8.68;;
64959;SDS011;51487;52.266;10.542;2023-03-21T05:10:09;12.63;;;8.85;;
64959;SDS011;51487;52.266;10.542;2023-03-21T05:12:36;13.90;;;8.48;;
64959;SDS011;51487;52.266;10.542;2023-03-21T05:15:02;11.52;;;8.65;;
64959;SDS011;51487;52.266;10.542;2023-03-21T05:17:29;11.13;;;8.63;;
64959;SDS011;51487;52.266;10.542;2023-03-21T05:19:55;14.95;;;8.30;;
64959;SDS011;51487;52.266;10.542;2023-03-21T05:22:20;13.73;;;8.95;;
64959;SDS011;51487;52.266;10.542;2023-03-21T05:24:48;15.43;;;10.07;;
64959;SDS011;51487;52.266;10.542;2023-03-21T05:27:15;16.15;;;9.43;;
64959;SDS011;51487;52.266;10.542;2023-03-21T05:30:00;14.70;;;8.68;;
64959;SDS011;51487;52.266;10.542;2023-03-21T05:32:27;13.35;;;9.00;;
64959;SDS011;51487;52.266;10.542;2023-03-21T05:34:52;18.48;;;9.35;;
64959;SDS011;51487;52.266;10.542;2023-03-21T05:37:18;12.95;;;8.27;;
64959;SDS011;51487;52.266;10.542;2023-03-21T05:39:43;16.73;;;8.90;;
64959;SDS011;51487;52.266;10.542;2023-03-21T05:42:08;13.50;;;8.60;;
64959;SDS011;51487;52.266;10.542;2023-03-21T05:44:34;12.45;;;8.50;;
64959;SDS011;51487;52.266;10.542;2023-03-21T05:46:59;17.15;;;9.50;;
64959;SDS011;51487;52.266;10.542;2023-03-21T05:49:25;10.80;;;8.35;;
64959;SDS011;51487;52.266;10.542;2023-03-21T05:51:51;13.55;;;8.88;;
64959;SDS011;51487;52.266;10.542;2023-03-21T05:54:16;13.40;;;8.30;;
64959;SDS011;51487;52.266;10.542;2023-03-21T05:56:41;12.18;;;8.00;;
64959;SDS011;51487;52.266;10.542;2023-03-21T05:59:07;12.20;;;8.45;;
64959;SDS011;51487;52.266;10.542;2023-03-21T06:01:32;14.05;;;9.02;;
64959;SDS011;51487;52.266;10.542;2023-03-21T06:03:57;12.77;;;7.85;;
64959;SDS011;51487;52.266;10.542;2023-03-21T06:06:23;13.90;;;7.70;;
64959;SDS011;51487;52.266;10.542;2023-03-21T06:08:48;19.73;;;11.35;;
64959;SDS011;51487;52.266;10.542;2023-03-21T06:11:18;10.60;;;8.25;;
64959;SDS011;51487;52.266;10.542;2023-03-21T06:13:48;12.48;;;7.57;;
64959;SDS011;51487;52.266;10.542;2023-03-21T06:16:14;10.70;;;7.65;;
64959;SDS011;51487;52.266;10.542;2023-03-21T06:18:39;11.05;;;7.28;;
64959;SDS011;51487;52.266;10.542;2023-03-21T06:21:05;10.35;;;8.18;;
64959;SDS011;51487;52.266;10.542;2023-03-21T06:23:30;13.23;;;7.80;;
64959;SDS011;51487;52.266;10.542;2023-03-21T06:25:56;12.48;;;7.03;;
64959;SDS011;51487;52.266;10.542;2023-03-21T06:28:21;11.35;;;7.05;;
64959;SDS011;51487;52.266;10.542;2023-03-21T06:30:46;12.23;;;7.20;;
64959;SDS011;51487;52.266;10.542;2023-03-21T06:33:12;14.48;;;7.50;;
64959;SDS011;51487;52.266;10.542;2023-03-21T06:35:37;12.60;;;7.68;;
64959;SDS011;51487;52.266;10.542;2023-03-21T06:38:02;12.02;;;7.10;;
64959;SDS011;51487;52.266;10.542;2023-03-21T06:40:28;11.98;;;7.30;;
64959;SDS011;51487;52.266;10.542;2023-03-21T06:42:53;10.45;;;7.50;;
64959;SDS011;51487;52.266;10.542;2023-03-21T06:45:19;12.32;;;8.05;;
64959;SDS011;51487;52.266;10.542;2023-03-21T06:47:44;12.65;;;7.30;;
64959;SDS011;51487;52.266;10.542;2023-03-21T06:50:10;10.75;;;6.97;;
64959;SDS011;51487;52.266;10.542;2023-03-21T06:52:35;15.80;;;8.05;;
64959;SDS011;51487;52.266;10.542;2023-03-21T06:55:00;14.57;;;7.88;;
64959;SDS011;51487;52.266;10.542;2023-03-21T06:57:26;12.63;;;7.35;;
64959;SDS011;51487;52.266;10.542;2023-03-21T06:59:52;13.15;;;8.07;;
64959;SDS011;51487;52.266;10.542;2023-03-21T07:02:17;14.32;;;7.40;;
64959;SDS011;51487;52.266;10.542;2023-03-21T07:04:42;11.18;;;7.35;;
64959;SDS011;51487;52.266;10.542;2023-03-21T07:07:08;14.35;;;8.02;;
64959;SDS011;51487;52.266;10.542;2023-03-21T07:09:33;12.35;;;7.63;;
64959;SDS011;51487;52.266;10.542;2023-03-21T07:11:58;13.93;;;7.75;;
64959;SDS011;51487;52.266;10.542;2023-03-21T07:14:24;12.88;;;8.07;;
64959;SDS011;51487;52.266;10.542;2023-03-21T07:16:49;15.02;;;7.35;;
64959;SDS011;51487;52.266;10.542;2023-03-21T07:19:15;12.43;;;6.90;;
64959;SDS011;51487;52.266;10.542;2023-03-21T07:21:40;13.05;;;6.85;;
64959;SDS011;51487;52.266;10.542;2023-03-21T07:24:06;13.00;;;7.55;;
64959;SDS011;51487;52.266;10.542;2023-03-21T07:26:31;17.42;;;8.23;;
64959;SDS011;51487;52.266;10.542;2023-03-21T07:28:57;13.27;;;7.78;;
64959;SDS011;51487;52.266;10.542;2023-03-21T07:31:24;14.57;;;7.18;;
64959;SDS011;51487;52.266;10.542;2023-03-21T07:33:50;15.93;;;7.50;;
64959;SDS011;51487;52.266;10.542;2023-03-21T07:36:16;16.27;;;7.93;;
64959;SDS011;51487;52.266;10.542;2023-03-21T07:38:42;11.98;;;7.65;;
64959;SDS011;51487;52.266;10.542;2023-03-21T07:41:08;13.00;;;7.78;;
64959;SDS011;51487;52.266;10.542;2023-03-21T07:43:34;12.60;;;8.02;;
64959;SDS011;51487;52.266;10.542;2023-03-21T07:46:00;12.63;;;7.38;;
64959;SDS011;51487;52.266;10.542;2023-03-21T07:48:26;13.48;;;7.13;;
64959;SDS011;51487;52.266;10.542;2023-03-21T07:50:51;14.68;;;8.82;;
64959;SDS011;51487;52.266;10.542;2023-03-21T07:53:17;11.07;;;6.78;;
64959;SDS011;51487;52.266;10.542;2023-03-21T07:55:43;12.07;;;7.13;;
64959;SDS011;51487;52.266;10.542;2023-03-21T07:58:08;10.65;;;7.03;;
64959;SDS011;51487;52.266;10.542;2023-03-21T08:00:34;11.50;;;7.15;;
64959;SDS011;51487;52.266;10.542;2023-03-21T08:02:59;11.90;;;7.38;;
64959;SDS011;51487;52.266;10.542;2023-03-21T08:05:27;18.60;;;7.43;;
64959;SDS011;51487;52.266;10.542;2023-03-21T08:08:00;11.80;;;6.90;;
64959;SDS011;51487;52.266;10.542;2023-03-21T08:10:26;16.95;;;7.82;;
64959;SDS011;51487;52.266;10.542;2023-03-21T08:12:52;15.07;;;8.15;;
64959;SDS011;51487;52.266;10.542;2023-03-21T08:15:18;12.15;;;7.03;;
64959;SDS011;51487;52.266;10.542;2023-03-21T08:17:44;13.90;;;7.30;;
64959;SDS011;51487;52.266;10.542;2023-03-21T08:20:11;9.88;;;6.72;;
64959;SDS011;51487;52.266;10.542;2023-03-21T08:22:38;16.48;;;7.00;;
64959;SDS011;51487;52.266;10.542;2023-03-21T08:25:04;12.35;;;7.15;;
64959;SDS011;51487;52.266;10.542;2023-03-21T08:27:32;13.60;;;7.28;;
64959;SDS011;51487;52.266;10.542;2023-03-21T08:29:58;13.02;;;6.57;;
64959;SDS011;51487;52.266;10.542;2023-03-21T08:32:25;12.35;;;6.95;;
64959;SDS011;51487;52.266;10.542;2023-03-21T08:34:54;15.13;;;7.75;;
64959;SDS011;51487;52.266;10.542;2023-03-21T08:37:22;14.63;;;7.10;;
64959;SDS011;51487;52.266;10.542;2023-03-21T08:39:48;13.68;;;7.28;;
64959;SDS011;51487;52.266;10.542;2023-03-21T08:42:13;13.77;;;6.68;;
64959;SDS011;51487;52.266;10.542;2023-03-21T08:44:39;14.32;;;7.00;;
64959;SDS011;51487;52.266;10.542;2023-03-21T08:47:05;11.00;;;6.78;;
64959;SDS011;51487;52.266;10.542;2023-03-21T08:49:30;12.45;;;7.07;;
64959;SDS011;51487;52.266;10.542;2023-03-21T08:51:56;12.73;;;7.30;;
64959;SDS011;51487;52.266;10.542;2023-03-21T08:54:21;12.30;;;6.65;;
64959;SDS011;51487;52.266;10.542;2023-03-21T08:56:47;11.82;;;7.10;;
64959;SDS011;51487;52.266;10.542;2023-03-21T08:59:12;11.93;;;6.72;;
64959;SDS011;51487;52.266;10.542;2023-03-21T09:01:38;12.32;;;6.22;;
64959;SDS011;51487;52.266;10.542;2023-03-21T09:04:04;10.93;;;6.57;;
64959;SDS011;51487;52.266;10.542;2023-03-21T09:06:32;11.52;;;6.30;;
64959;SDS011;51487;52.266;10.542;2023-03-21T09:08:57;14.13;;;7.00;;
64959;SDS011;51487;52.266;10.542;2023-03-21T09:11:23;13.77;;;6.38;;
64959;SDS011;51487;52.266;10.542;2023-03-21T09:13:49;10.88;;;5.93;;
64959;SDS011;51487;52.266;10.542;2023-03-21T09:16:14;11.13;;;5.75;;
64959;SDS011;51487;52.266;10.542;2023-03-21T09:18:40;14.45;;;6.40;;
64959;SDS011;51487;52.266;10.542;2023-03-21T09:21:14;11.30;;;6.53;;
64959;SDS011;51487;52.266;10.542;2023-03-21T09:23:40;14.80;;;6.75;;
64959;SDS011;51487;52.266;10.542;2023-03-21T09:26:07;15.90;;;7.38;;
64959;SDS011;51487;52.266;10.542;2023-03-21T09:28:33;12.48;;;6.88;;
64959;SDS011;51487;52.266;10.542;2023-03-21T09:31:00;12.18;;;6.47;;
64959;SDS011;51487;52.266;10.542;2023-03-21T09:33:26;11.80;;;6.38;;
64959;SDS011;51487;52.266;10.542;2023-03-21T09:35:53;11.48;;;5.97;;
64959;SDS011;51487;52.266;10.542;2023-03-21T09:38:19;13.27;;;7.10;;
64959;SDS011;51487;52.266;10.542;2023-03-21T09:43:30;17.10;;;6.97;;
64959;SDS011;51487;52.266;10.542;2023-03-21T09:46:23;14.88;;;6.80;;
64959;SDS011;51487;52.266;10.542;2023-03-21T09:49:09;16.10;;;7.50;;
64959;SDS011;51487;52.266;10.542;2023-03-21T09:51:41;14.20;;;7.10;;
64959;SDS011;51487;52.266;10.542;2023-03-21T09:54:17;13.80;;;7.88;;
64959;SDS011;51487;52.266;10.542;2023-03-21T09:56:47;16.80;;;8.35;;
64959;SDS011;51487;52.266;10.542;2023-03-21T09:59:21;17.50;;;8.05;;
64959;SDS011;51487;52.266;10.542;2023-03-21T10:01:52;15.63;;;8.07;;
64959;SDS011;51487;52.266;10.542;2023-03-21T10:04:19;18.55;;;8.90;;
64959;SDS011;51487;52.266;10.542;2023-03-21T10:06:46;19.90;;;8.32;;
64959;SDS011;51487;52.266;10.542;2023-03-21T10:11:48;22.10;;;12.32;;
64959;SDS011;51487;52.266;10.542;2023-03-21T10:17:03;17.38;;;8.10;;
64959;SDS011;51487;52.266;10.542;2023-03-21T10:20:50;13.93;;;7.75;;
64959;SDS011;51487;52.266;10.542;2023-03-21T10:22:50;15.25;;;7.85;;
64959;SDS011;51487;52.266;10.542;2023-03-21T10:25:18;14.15;;;7.65;;
64959;SDS011;51487;52.266;10.542;2023-03-21T10:27:45;15.40;;;8.10;;
64959;SDS011;51487;52.266;10.542;2023-03-21T10:30:20;13.85;;;7.15;;
64959;SDS011;51487;52.266;10.542;2023-03-21T10:32:53;13.93;;;7.43;;
64959;SDS011;51487;52.266;10.542;2023-03-21T10:35:20;13.63;;;6.80;;
64959;SDS011;51487;52.266;10.542;2023-03-21T10:37:46;14.38;;;7.07;;
64959;SDS011;51487;52.266;10.542;2023-03-21T10:40:15;15.07;;;7.65;;
64959;SDS011;51487;52.266;10.542;2023-03-21T10:42:41;11.50;;;6.82;;
64959;SDS011;51487;52.266;10.542;2023-03-21T10:45:16;12.63;;;6.43;;
64959;SDS011;51487;52.266;10.542;2023-03-21T10:47:45;13.05;;;6.32;;
64959;SDS011;51487;52.266;10.542;2023-03-21T10:50:12;13.32;;;6.32;;
64959;SDS011;51487;52.266;10.542;2023-03-21T10:52:44;13.73;;;6.53;;
64959;SDS011;51487;52.266;10.542;2023-03-21T10:55:29;13.55;;;6.65;;
64959;SDS011;51487;52.266;10.542;2023-03-21T10:58:03;14.88;;;6.45;;
64959;SDS011;51487;52.266;10.542;2023-03-21T11:00:36;10.25;;;6.55;;
64959;SDS011;51487;52.266;10.542;2023-03-21T11:03:05;13.38;;;6.60;;
64959;SDS011;51487;52.266;10.542;2023-03-21T11:05:39;10.65;;;6.13;;
64959;SDS011;51487;52.266;10.542;2023-03-21T11:08:10;11.00;;;6.13;;
64959;SDS011;51487;52.266;10.542;2023-03-21T11:10:48;14.52;;;6.45;;
64959;SDS011;51487;52.266;10.542;2023-03-21T11:13:33;16.25;;;6.50;;
64959;SDS011;51487;52.266;10.542;2023-03-21T11:16:09;12.55;;;6.40;;
64959;SDS011;51487;52.266;10.542;2023-03-21T11:18:49;11.77;;;6.43;;
64959;SDS011;51487;52.266;10.542;2023-03-21T11:21:16;11.05;;;6.38;;
64959;SDS011;51487;52.266;10.542;2023-03-21T11:23:42;14.68;;;6.75;;
64959;SDS011;51487;52.266;10.542;2023-03-21T11:26:18;14.38;;;6.63;;
64959;SDS011;51487;52.266;10.542;2023-03-21T11:28:48;14.93;;;7.32;;
64959;SDS011;51487;52.266;10.542;2023-03-21T11:31:15;15.35;;;6.90;;
64959;SDS011;51487;52.266;10.542;2023-03-21T11:33:43;13.25;;;6.65;;
64959;SDS011;51487;52.266;10.542;2023-03-21T11:38:50;13.13;;;7.40;;
64959;SDS011;51487;52.266;10.542;2023-03-21T11:41:26;13.02;;;7.15;;
64959;SDS011;51487;52.266;10.542;2023-03-21T11:43:54;14.70;;;6.43;;
64959;SDS011;51487;52.266;10.542;2023-03-21T11:46:22;15.15;;;6.70;;
64959;SDS011;51487;52.266;10.542;2023-03-21T11:48:50;14.25;;;6.47;;
64959;SDS011;51487;52.266;10.542;2023-03-21T11:51:19;12.57;;;6.15;;
64959;SDS011;51487;52.266;10.542;2023-03-21T11:54:08;13.57;;;6.28;;
64959;SDS011;51487;52.266;10.542;2023-03-21T11:56:50;12.45;;;5.97;;
64959;SDS011;51487;52.266;10.542;2023-03-21T12:01:53;11.75;;;6.47;;
64959;SDS011;51487;52.266;10.542;2023-03-21T12:04:32;12.07;;;6.70;;
64959;SDS011;51487;52.266;10.542;2023-03-21T12:09:49;14.98;;;6.30;;
64959;SDS011;51487;52.266;10.542;2023-03-21T12:15:12;11.88;;;6.30;;
64959;SDS011;51487;52.266;10.542;2023-03-21T12:42:05;11.95;;;6.32;;
64959;SDS011;51487;52.266;10.542;2023-03-21T12:44:43;10.93;;;6.53;;
64959;SDS011;51487;52.266;10.542;2023-03-21T12:47:23;11.85;;;6.80;;
64959;SDS011;51487;52.266;10.542;2023-03-21T12:49:56;11.35;;;6.90;;
64959;SDS011;51487;52.266;10.542;2023-03-21T12:52:46;15.20;;;6.78;;
64959;SDS011;51487;52.266;10.542;2023-03-21T12:55:20;14.27;;;7.20;;
64959;SDS011;51487;52.266;10.542;2023-03-21T12:57:52;16.35;;;7.32;;
64959;SDS011;51487;52.266;10.542;2023-03-21T13:00:25;13.82;;;7.10;;
64959;SDS011;51487;52.266;10.542;2023-03-21T13:03:07;12.30;;;7.05;;
64959;SDS011;51487;52.266;10.542;2023-03-21T13:05:45;13.48;;;6.97;;
64959;SDS011;51487;52.266;10.542;2023-03-21T13:11:01;14.98;;;8.10;;
64959;SDS011;51487;52.266;10.542;2023-03-21T13:27:04;14.52;;;7.85;;
64959;SDS011;51487;52.266;10.542;2023-03-21T13:29:32;16.10;;;7.60;;
64959;SDS011;51487;52.266;10.542;2023-03-21T13:32:14;16.50;;;7.50;;
64959;SDS011;51487;52.266;10.542;2023-03-21T13:35:12;15.50;;;8.07;;
64959;SDS011;51487;52.266;10.542;2023-03-21T13:37:56;16.10;;;9.10;;
64959;SDS011;51487;52.266;10.542;2023-03-21T13:40:24;15.10;;;7.88;;
64959;SDS011;51487;52.266;10.542;2023-03-21T13:42:59;15.45;;;8.77;;
64959;SDS011;51487;52.266;10.542;2023-03-21T13:45:30;13.82;;;8.95;;
64959;SDS011;51487;52.266;10.542;2023-03-21T13:47:58;16.20;;;9.48;;
64959;SDS011;51487;52.266;10.542;2023-03-21T13:50:28;16.48;;;8.57;;
64959;SDS011;51487;52.266;10.542;2023-03-21T13:53:10;17.25;;;8.13;;
64959;SDS011;51487;52.266;10.542;2023-03-21T13:55:45;14.90;;;8.73;;
64959;SDS011;51487;52.266;10.542;2023-03-21T13:58:23;16.75;;;8.30;;
64959;SDS011;51487;52.266;10.542;2023-03-21T14:01:10;17.02;;;8.73;;
64959;SDS011;51487;52.266;10.542;2023-03-21T14:03:37;16.38;;;9.10;;
64959;SDS011;51487;52.266;10.542;2023-03-21T14:06:03;18.83;;;9.23;;
64959;SDS011;51487;52.266;10.542;2023-03-21T14:08:33;16.92;;;8.82;;
64959;SDS011;51487;52.266;10.542;2023-03-21T14:11:00;16.65;;;8.40;;
64959;SDS011;51487;52.266;10.542;2023-03-21T14:13:30;20.70;;;9.13;;
64959;SDS011;51487;52.266;10.542;2023-03-21T14:16:00;15.32;;;8.43;;
64959;SDS011;51487;52.266;10.542;2023-03-21T14:18:38;14.32;;;8.63;;
64959;SDS011;51487;52.266;10.542;2023-03-21T14:21:16;16.20;;;9.18;;
64959;SDS011;51487;52.266;10.542;2023-03-21T14:23:50;16.10;;;8.60;;
64959;SDS011;51487;52.266;10.542;2023-03-21T14:26:20;18.27;;;9.27;;
64959;SDS011;51487;52.266;10.542;2023-03-21T14:28:47;15.60;;;9.10;;
64959;SDS011;51487;52.266;10.542;2023-03-21T14:31:15;14.20;;;8.85;;
64959;SDS011;51487;52.266;10.542;2023-03-21T14:33:46;15.02;;;9.07;;
64959;SDS011;51487;52.266;10.542;2023-03-21T14:36:22;15.77;;;9.27;;
64959;SDS011;51487;52.266;10.542;2023-03-21T14:38:54;17.73;;;9.63;;
64959;SDS011;51487;52.266;10.542;2023-03-21T14:41:28;19.83;;;10.27;;
64959;SDS011;51487;52.266;10.542;2023-03-21T14:46:46;16.02;;;9.57;;
64959;SDS011;51487;52.266;10.542;2023-03-21T14:49:12;15.45;;;9.23;;
64959;SDS011;51487;52.266;10.542;2023-03-21T14:51:43;16.33;;;9.07;;
64959;SDS011;51487;52.266;10.542;2023-03-21T14:54:11;12.90;;;8.02;;
64959;SDS011;51487;52.266;10.542;2023-03-21T14:56:41;14.57;;;8.10;;
64959;SDS011;51487;52.266;10.542;2023-03-21T14:59:12;13.70;;;8.25;;
64959;SDS011;51487;52.266;10.542;2023-03-21T15:01:39;15.35;;;8.00;;
64959;SDS011;51487;52.266;10.542;2023-03-21T15:04:05;13.93;;;7.47;;
64959;SDS011;51487;52.266;10.542;2023-03-21T15:06:30;11.63;;;7.72;;
64959;SDS011;51487;52.266;10.542;2023-03-21T15:09:00;11.25;;;7.30;;
64959;SDS011;51487;52.266;10.542;2023-03-21T15:11:32;15.73;;;8.63;;
64959;SDS011;51487;52.266;10.542;2023-03-21T15:14:02;12.30;;;7.95;;
64959;SDS011;51487;52.266;10.542;2023-03-21T15:16:29;15.60;;;8.02;;
64959;SDS011;51487;52.266;10.542;2023-03-21T15:18:55;12.27;;;7.32;;
64959;SDS011;51487;52.266;10.542;2023-03-21T15:21:25;11.90;;;7.10;;
64959;SDS011;51487;52.266;10.542;2023-03-21T15:23:53;16.58;;;7.40;;
64959;SDS011;51487;52.266;10.542;2023-03-21T15:26:23;16.08;;;7.93;;
64959;SDS011;51487;52.266;10.542;2023-03-21T15:28:54;15.85;;;7.95;;
64959;SDS011;51487;52.266;10.542;2023-03-21T15:31:22;15.68;;;9.48;;
64959;SDS011;51487;52.266;10.542;2023-03-21T15:33:51;14.98;;;8.15;;
64959;SDS011;51487;52.266;10.542;2023-03-21T15:36:22;13.10;;;7.78;;
64959;SDS011;51487;52.266;10.542;2023-03-21T15:38:50;15.00;;;8.00;;
64959;SDS011;51487;52.266;10.542;2023-03-21T15:43:45;13.00;;;7.65;;
64959;SDS011;51487;52.266;10.542;2023-03-21T15:46:16;13.40;;;8.15;;
64959;SDS011;51487;52.266;10.542;2023-03-21T15:51:43;14.38;;;7.82;;
64959;SDS011;51487;52.266;10.542;2023-03-21T15:54:13;17.38;;;8.15;;
64959;SDS011;51487;52.266;10.542;2023-03-21T15:56:41;14.48;;;8.25;;
64959;SDS011;51487;52.266;10.542;2023-03-21T15:59:14;14.27;;;8.15;;
64959;SDS011;51487;52.266;10.542;2023-03-21T16:01:43;12.82;;;7.28;;
64959;SDS011;51487;52.266;10.542;2023-03-21T16:04:11;15.88;;;7.93;;